Time;durP1;ratioP1;P1;durP2;ratioP2;P2;SDS_P1;SDS_P2;PMS_P1;PMS_P2;Temp;Humidity;BMP_temperature;BMP_pressure;BME280_temperature;BME280_humidity;BME280_pressure;Samples;Min_cycle;Max_cycle;Signal;HPM_P1;HPM_P2
2023/01/22 00:01:19;;;;;;;;;;;-1.70;99.90;;;;;;5089551;28;19904;-68
2023/01/22 00:03:44;;;;;;;;;;;-1.70;99.90;;;;;;5092108;28;19904;-68
2023/01/22 00:06:10;;;;;;;;;;;-1.50;99.90;;;;;;5089733;28;20498;-68
2023/01/22 00:08:36;;;;;;;;;;;-1.80;99.90;;;;;;5081464;28;19915;-68
2023/01/22 00:11:02;;;;;;;;;;;-1.80;99.90;;;;;;5089022;28;19908;-68
2023/01/22 00:13:27;;;;;;;;;;;-1.80;99.90;;;;;;5071761;28;19915;-68
2023/01/22 00:15:55;;;;;;;;;;;-1.80;99.90;;;;;;5070327;28;20358;-68
2023/01/22 00:18:21;;;;;;;;;;;-1.80;99.90;;;;;;5071010;28;20238;-68
2023/01/22 00:20:47;;;;;;;;;;;-1.80;99.90;;;;;;5070830;28;19911;-68
2023/01/22 00:23:12;;;;;;;;;;;-1.80;99.90;;;;;;5071323;28;19904;-68
2023/01/22 00:25:38;;;;;;;;;;;-1.70;99.90;;;;;;5070908;28;19904;-68
2023/01/22 00:28:03;;;;;;;;;;;-1.80;99.90;;;;;;5091488;28;20123;-68
2023/01/22 00:30:29;;;;;;;;;;;-1.80;99.90;;;;;;5090180;28;19912;-68
2023/01/22 00:32:54;;;;;;;;;;;-1.80;99.90;;;;;;5090810;28;19904;-68
2023/01/22 00:35:20;;;;;;;;;;;-1.80;99.90;;;;;;5088794;28;19911;-68
2023/01/22 00:37:46;;;;;;;;;;;-1.80;99.90;;;;;;5090117;28;19911;-68
2023/01/22 00:40:12;;;;;;;;;;;-1.80;99.90;;;;;;5089195;28;20369;-68
2023/01/22 00:42:38;;;;;;;;;;;-1.80;99.90;;;;;;5088739;28;20004;-68
2023/01/22 00:45:04;;;;;;;;;;;-1.70;99.90;;;;;;5088701;28;20006;-68
2023/01/22 00:47:29;;;;;;;;;;;-1.80;99.90;;;;;;5089466;28;19991;-68
2023/01/22 00:49:54;;;;;;;;;;;-1.70;99.90;;;;;;5088277;28;19911;-68
2023/01/22 00:52:20;;;;;;;;;;;-1.80;99.90;;;;;;5090444;28;19965;-68
2023/01/22 00:54:45;;;;;;;;;;;-1.90;99.90;;;;;;5089247;28;19904;-68
2023/01/22 00:57:11;;;;;;;;;;;-1.70;99.90;;;;;;5088859;28;19992;-67
2023/01/22 00:59:36;;;;;;;;;;;-1.90;99.90;;;;;;5089935;28;19904;-68
2023/01/22 01:02:02;;;;;;;;;;;-1.80;99.90;;;;;;5089837;28;20360;-68
2023/01/22 01:04:27;;;;;;;;;;;-1.80;99.90;;;;;;5088668;28;19928;-68
2023/01/22 01:06:53;;;;;;;;;;;-1.80;99.90;;;;;;5090048;28;19908;-68
2023/01/22 01:09:18;;;;;;;;;;;-1.70;99.90;;;;;;5078623;28;19908;-69
2023/01/22 01:11:44;;;;;;;;;;;-1.80;99.90;;;;;;5091110;28;19904;-67
2023/01/22 01:14:09;;;;;;;;;;;-3.70;99.90;;;;;;5077483;28;20380;-67
2023/01/22 01:16:35;;;;;;;;;;;-1.80;99.90;;;;;;5071018;28;19927;-68
2023/01/22 01:19:02;;;;;;;;;;;-1.80;99.90;;;;;;5074401;28;19909;-68
2023/01/22 01:21:27;;;;;;;;;;;-1.90;99.90;;;;;;5080103;28;19908;-68
2023/01/22 01:23:54;;;;;;;;;;;-1.90;99.90;;;;;;5073597;28;19904;-68
2023/01/22 01:26:20;;;;;;;;;;;-1.80;99.90;;;;;;5083909;28;19909;-68
2023/01/22 01:28:46;;;;;;;;;;;-1.80;99.90;;;;;;5070925;28;19904;-67
2023/01/22 01:31:13;;;;;;;;;;;-1.80;99.90;;;;;;5070800;28;19911;-68
2023/01/22 01:33:39;;;;;;;;;;;-1.80;99.90;;;;;;5070688;28;19991;-68
2023/01/22 01:36:06;;;;;;;;;;;-1.80;99.90;;;;;;5086129;28;19999;-67
2023/01/22 01:38:32;;;;;;;;;;;-1.80;99.90;;;;;;5076273;28;19904;-67
2023/01/22 01:40:57;;;;;;;;;;;-1.80;99.90;;;;;;5070509;28;19909;-67
2023/01/22 01:43:23;;;;;;;;;;;-1.80;99.90;;;;;;5070436;28;19916;-67
2023/01/22 01:45:49;;;;;;;;;;;-1.80;99.90;;;;;;5070796;28;20353;-67
2023/01/22 01:48:14;;;;;;;;;;;-1.80;99.90;;;;;;5070877;28;20403;-67
2023/01/22 01:50:41;;;;;;;;;;;-1.80;99.90;;;;;;5071166;28;19950;-68
2023/01/22 01:53:07;;;;;;;;;;;-1.80;99.90;;;;;;5071992;28;19911;-68
2023/01/22 01:55:33;;;;;;;;;;;-1.80;99.90;;;;;;5071213;28;19997;-67
2023/01/22 01:58:06;;;;;;;;;;;-1.70;99.90;;;;;;5071370;28;19905;-67
2023/01/22 02:00:33;;;;;;;;;;;-1.90;99.90;;;;;;5079311;28;19964;-67
2023/01/22 02:02:59;;;;;;;;;;;-1.80;99.90;;;;;;5074663;28;19904;-67
2023/01/22 02:05:27;;;;;;;;;;;-1.80;99.90;;;;;;5070397;28;19931;-67
2023/01/22 02:07:52;;;;;;;;;;;-1.80;99.90;;;;;;5070664;28;19932;-67
2023/01/22 02:10:18;;;;;;;;;;;-1.80;99.90;;;;;;5070138;28;20001;-67
2023/01/22 02:12:43;;;;;;;;;;;-2.10;99.90;;;;;;5070286;28;19912;-67
2023/01/22 02:15:09;;;;;;;;;;;-1.90;99.90;;;;;;5070284;28;19915;-67
2023/01/22 02:17:35;;;;;;;;;;;-1.10;99.90;;;;;;5071232;28;19908;-67
2023/01/22 02:20:00;;;;;;;;;;;-2.20;99.90;;;;;;5070183;28;19904;-67
2023/01/22 02:22:27;;;;;;;;;;;-2.00;99.90;;;;;;5074986;28;20010;-67
2023/01/22 02:24:53;;;;;;;;;;;-2.10;99.90;;;;;;5085664;28;19957;-67
2023/01/22 02:27:18;;;;;;;;;;;-2.00;99.90;;;;;;5073998;28;19904;-68
2023/01/22 02:29:44;;;;;;;;;;;-2.10;99.90;;;;;;5074160;28;20258;-67
2023/01/22 02:32:10;;;;;;;;;;;-2.00;99.90;;;;;;5073879;28;19904;-67
2023/01/22 02:34:35;;;;;;;;;;;-2.00;99.90;;;;;;5074158;28;19912;-67
2023/01/22 02:37:01;;;;;;;;;;;-2.00;99.90;;;;;;5074447;28;19915;-67
2023/01/22 02:39:26;;;;;;;;;;;-2.00;99.90;;;;;;5074273;28;20435;-67
2023/01/22 02:41:52;;;;;;;;;;;-1.90;99.90;;;;;;5074250;28;19932;-67
2023/01/22 02:44:17;;;;;;;;;;;-1.90;99.90;;;;;;5077176;28;19912;-67
2023/01/22 02:46:43;;;;;;;;;;;-1.90;99.90;;;;;;5091134;28;19908;-67
2023/01/22 02:49:08;;;;;;;;;;;-1.90;99.90;;;;;;5083289;28;20046;-67
2023/01/22 02:51:35;;;;;;;;;;;-1.90;99.90;;;;;;5075705;28;20435;-67
2023/01/22 02:54:00;;;;;;;;;;;-1.90;99.90;;;;;;5074081;28;19996;-67
2023/01/22 02:56:26;;;;;;;;;;;-2.00;99.90;;;;;;5075774;28;19920;-67
2023/01/22 02:58:51;;;;;;;;;;;-2.00;99.90;;;;;;5074821;28;19905;-68
2023/01/22 03:01:19;;;;;;;;;;;-2.00;99.90;;;;;;5075259;28;19904;-67
2023/01/22 03:03:48;;;;;;;;;;;-1.90;99.90;;;;;;5074572;28;19999;-67
2023/01/22 03:06:14;;;;;;;;;;;-2.00;99.90;;;;;;5075311;28;19935;-67
2023/01/22 03:08:41;;;;;;;;;;;-1.90;99.90;;;;;;5082462;28;19954;-67
2023/01/22 03:11:06;;;;;;;;;;;-1.90;99.90;;;;;;5079169;28;19965;-67
2023/01/22 03:21:46;;;;;;;;;;;-1.30;99.90;;;;;;5082262;28;19957;-67
2023/01/22 03:24:11;;;;;;;;;;;-1.20;99.90;;;;;;5092133;28;19904;-67
2023/01/22 03:26:36;;;;;;;;;;;-1.20;99.90;;;;;;5092739;28;19911;-67
2023/01/22 03:29:02;;;;;;;;;;;-1.20;99.90;;;;;;5091979;28;20331;-67
2023/01/22 03:31:27;;;;;;;;;;;-1.10;99.90;;;;;;5092467;28;19907;-67
2023/01/22 03:33:53;;;;;;;;;;;-0.90;99.90;;;;;;5092382;28;19904;-67
2023/01/22 03:36:18;;;;;;;;;;;-0.90;99.90;;;;;;5092250;28;19912;-67
2023/01/22 03:38:44;;;;;;;;;;;-0.70;99.90;;;;;;5078855;28;19995;-67
2023/01/22 03:41:11;;;;;;;;;;;-0.60;99.90;;;;;;5083848;28;19915;-67
2023/01/22 03:43:37;;;;;;;;;;;-0.50;99.90;;;;;;5074162;28;19916;-67
2023/01/22 03:46:15;;;;;;;;;;;-0.50;99.90;;;;;;5083829;28;20387;-67
2023/01/22 03:48:41;;;;;;;;;;;-0.40;99.90;;;;;;5085666;28;19946;-67
2023/01/22 03:51:07;;;;;;;;;;;-0.30;99.90;;;;;;5072643;28;19947;-67
2023/01/22 03:53:33;;;;;;;;;;;-0.30;99.90;;;;;;5073592;28;19908;-67
2023/01/22 03:56:00;;;;;;;;;;;-0.30;99.90;;;;;;5072699;28;19908;-67
2023/01/22 03:58:25;;;;;;;;;;;-0.20;99.90;;;;;;5073004;28;19911;-67
2023/01/22 04:00:51;;;;;;;;;;;-0.20;99.90;;;;;;5072927;28;19905;-66
2023/01/22 04:03:16;;;;;;;;;;;-0.20;99.90;;;;;;5072774;28;19908;-67
2023/01/22 04:05:42;;;;;;;;;;;-0.20;99.90;;;;;;5072836;28;20265;-67
2023/01/22 04:08:07;;;;;;;;;;;-0.10;99.90;;;;;;5073529;28;19904;-67
2023/01/22 04:10:33;;;;;;;;;;;-0.10;99.90;;;;;;5086499;28;19908;-66
2023/01/22 04:12:58;;;;;;;;;;;-0.10;99.90;;;;;;5085163;28;19904;-67
2023/01/22 04:15:23;;;;;;;;;;;0.00;99.90;;;;;;5089071;28;19904;-67
2023/01/22 04:17:49;;;;;;;;;;;0.10;99.90;;;;;;5088578;28;20770;-67
2023/01/22 04:20:14;;;;;;;;;;;-0.10;99.90;;;;;;5089144;28;19915;-67
2023/01/22 04:22:40;;;;;;;;;;;-0.10;99.90;;;;;;5088302;28;19911;-67
2023/01/22 04:25:06;;;;;;;;;;;0.00;99.90;;;;;;5089624;28;19904;-67
2023/01/22 04:27:36;;;;;;;;;;;-0.10;99.90;;;;;;5088076;28;19910;-67
2023/01/22 04:30:03;;;;;;;;;;;0.00;99.90;;;;;;5091011;28;20279;-67
2023/01/22 04:32:28;;;;;;;;;;;0.00;99.90;;;;;;5090143;28;19938;-67
2023/01/22 04:34:54;;;;;;;;;;;0.00;99.90;;;;;;5090823;28;19939;-67
2023/01/22 04:37:19;;;;;;;;;;;-0.10;99.90;;;;;;5089785;28;19973;-67
2023/01/22 04:39:44;;;;;;;;;;;0.00;99.90;;;;;;5090729;28;20310;-67
2023/01/22 04:42:10;;;;;;;;;;;0.00;99.90;;;;;;5088930;28;19998;-67
2023/01/22 04:44:35;;;;;;;;;;;0.00;99.90;;;;;;5090229;28;19931;-67
2023/01/22 04:47:01;;;;;;;;;;;-0.10;99.90;;;;;;5088610;28;20356;-68
2023/01/22 04:49:26;;;;;;;;;;;0.00;99.90;;;;;;5088852;28;20784;-67
2023/01/22 04:51:52;;;;;;;;;;;-0.10;99.90;;;;;;5082177;28;19914;-68
2023/01/22 04:54:18;;;;;;;;;;;-0.10;99.90;;;;;;5089876;28;19904;-68
2023/01/22 04:56:44;;;;;;;;;;;0.00;99.90;;;;;;5088021;28;19919;-68
2023/01/22 04:59:09;;;;;;;;;;;0.00;99.90;;;;;;5088677;28;19921;-68
2023/01/22 05:01:35;;;;;;;;;;;0.20;99.90;;;;;;5088969;28;19919;-68
2023/01/22 05:04:01;;;;;;;;;;;0.00;99.90;;;;;;5090092;28;19946;-68
2023/01/22 05:06:26;;;;;;;;;;;0.00;99.90;;;;;;5088922;28;19947;-68
2023/01/22 05:08:52;;;;;;;;;;;0.00;99.90;;;;;;5086812;28;20009;-68
2023/01/22 05:11:17;;;;;;;;;;;-0.20;99.90;;;;;;5078563;28;19908;-68
2023/01/22 05:13:43;;;;;;;;;;;0.00;99.90;;;;;;5090927;28;19904;-67
2023/01/22 05:16:08;;;;;;;;;;;0.00;99.90;;;;;;5090103;28;19974;-67
2023/01/22 05:18:34;;;;;;;;;;;0.00;99.90;;;;;;5090778;28;19910;-68
2023/01/22 05:20:59;;;;;;;;;;;0.00;99.90;;;;;;5074419;28;19912;-67
2023/01/22 05:23:24;;;;;;;;;;;0.10;99.90;;;;;;5080113;28;19904;-67
2023/01/22 05:25:50;;;;;;;;;;;0.00;99.90;;;;;;5089914;28;19908;-68
2023/01/22 05:28:15;;;;;;;;;;;0.00;99.90;;;;;;5090446;28;19911;-67
2023/01/22 05:30:41;;;;;;;;;;;0.10;99.90;;;;;;5090436;28;19904;-67
2023/01/22 05:33:06;;;;;;;;;;;0.00;99.90;;;;;;5090554;28;20007;-67
2023/01/22 05:35:32;;;;;;;;;;;-0.10;99.90;;;;;;5089354;28;20578;-67
2023/01/22 05:37:57;;;;;;;;;;;0.00;99.90;;;;;;5089408;28;19912;-67
2023/01/22 05:40:23;;;;;;;;;;;0.10;99.90;;;;;;5089223;28;19904;-67
2023/01/22 05:42:48;;;;;;;;;;;0.10;99.90;;;;;;5089947;28;19916;-67
2023/01/22 05:45:14;;;;;;;;;;;0.10;99.90;;;;;;5090026;28;19911;-68
2023/01/22 05:47:39;;;;;;;;;;;0.10;99.90;;;;;;5088871;28;20296;-68
2023/01/22 05:50:05;;;;;;;;;;;0.00;99.90;;;;;;5089990;28;19907;-68
2023/01/22 05:52:30;;;;;;;;;;;0.10;99.90;;;;;;5090217;28;19908;-68
2023/01/22 05:54:58;;;;;;;;;;;0.10;99.90;;;;;;5088186;28;19904;-68
2023/01/22 05:57:24;;;;;;;;;;;0.10;99.90;;;;;;5091103;28;20352;-70
2023/01/22 05:59:49;;;;;;;;;;;0.00;99.90;;;;;;5087737;28;19919;-68
2023/01/22 06:02:15;;;;;;;;;;;0.00;99.90;;;;;;5090655;28;19904;-68
2023/01/22 06:04:40;;;;;;;;;;;0.20;99.90;;;;;;5088805;28;19908;-68
2023/01/22 06:07:05;;;;;;;;;;;0.10;99.90;;;;;;5091874;28;20006;-68
2023/01/22 06:09:31;;;;;;;;;;;0.20;99.90;;;;;;5087003;28;19912;-68
2023/01/22 06:11:56;;;;;;;;;;;0.20;99.90;;;;;;5074267;28;20603;-69
2023/01/22 06:14:22;;;;;;;;;;;0.10;99.90;;;;;;5088732;28;19927;-67
2023/01/22 06:16:47;;;;;;;;;;;0.10;99.90;;;;;;5094329;28;19946;-68
2023/01/22 06:19:13;;;;;;;;;;;0.10;99.90;;;;;;5093741;28;19915;-67
2023/01/22 06:21:38;;;;;;;;;;;-0.50;99.90;;;;;;5094139;28;19994;-67
2023/01/22 06:24:04;;;;;;;;;;;0.10;99.90;;;;;;5093614;28;19904;-68
2023/01/22 06:26:29;;;;;;;;;;;0.10;99.90;;;;;;5085446;28;20041;-67
2023/01/22 06:28:55;;;;;;;;;;;0.10;99.90;;;;;;5074026;28;19977;-67
2023/01/22 06:31:20;;;;;;;;;;;0.10;99.90;;;;;;5082356;28;19904;-67
2023/01/22 06:33:46;;;;;;;;;;;0.10;99.90;;;;;;5093295;28;20399;-67
2023/01/22 06:36:11;;;;;;;;;;;0.10;99.90;;;;;;5093675;28;19927;-67
2023/01/22 06:38:37;;;;;;;;;;;0.10;99.90;;;;;;5078756;28;20402;-67
2023/01/22 06:41:02;;;;;;;;;;;0.10;99.90;;;;;;5073707;28;19904;-67
2023/01/22 06:43:28;;;;;;;;;;;0.00;99.90;;;;;;5087785;28;19916;-67
2023/01/22 06:45:54;;;;;;;;;;;0.10;99.90;;;;;;5093604;28;19950;-67
2023/01/22 06:48:19;;;;;;;;;;;0.10;99.90;;;;;;5090945;28;19904;-68
2023/01/22 06:50:45;;;;;;;;;;;0.00;99.90;;;;;;5081456;28;19950;-67
2023/01/22 06:53:10;;;;;;;;;;;0.00;99.90;;;;;;5078661;28;19904;-67
2023/01/22 06:55:36;;;;;;;;;;;0.00;99.90;;;;;;5081145;28;19942;-68
2023/01/22 06:58:02;;;;;;;;;;;-0.10;99.90;;;;;;5078839;28;19905;-68
2023/01/22 07:00:27;;;;;;;;;;;0.00;99.90;;;;;;5073584;28;19916;-68
2023/01/22 07:02:53;;;;;;;;;;;0.00;99.90;;;;;;5073353;28;19905;-68
2023/01/22 07:05:19;;;;;;;;;;;0.00;99.90;;;;;;5073308;28;19904;-68
2023/01/22 07:07:45;;;;;;;;;;;-0.10;99.90;;;;;;5072534;28;20369;-68
2023/01/22 07:10:10;;;;;;;;;;;1.90;99.90;;;;;;5075492;28;19948;-68
2023/01/22 07:12:36;;;;;;;;;;;-0.10;99.90;;;;;;5073362;28;19912;-68
2023/01/22 07:15:05;;;;;;;;;;;0.00;99.90;;;;;;5073060;28;19955;-68
2023/01/22 07:17:31;;;;;;;;;;;0.00;99.90;;;;;;5073068;28;19915;-68
2023/01/22 07:19:57;;;;;;;;;;;0.00;99.90;;;;;;5071735;28;19904;-68
2023/01/22 07:22:22;;;;;;;;;;;0.00;99.90;;;;;;5073002;28;19950;-68
2023/01/22 07:24:48;;;;;;;;;;;0.00;99.90;;;;;;5073249;28;19915;-68
2023/01/22 07:27:13;;;;;;;;;;;0.00;99.90;;;;;;5074119;28;19905;-68
2023/01/22 07:29:38;;;;;;;;;;;-0.60;99.90;;;;;;5073709;28;19905;-68
2023/01/22 07:32:04;;;;;;;;;;;-0.10;99.90;;;;;;5074264;28;20357;-69
2023/01/22 07:34:29;;;;;;;;;;;0.00;99.90;;;;;;5073133;28;20043;-68
2023/01/22 07:36:55;;;;;;;;;;;-0.10;99.90;;;;;;5085818;28;19908;-68
2023/01/22 07:39:20;;;;;;;;;;;-0.10;99.90;;;;;;5073436;28;19905;-69
2023/01/22 07:41:46;;;;;;;;;;;-0.20;99.90;;;;;;5073256;28;20379;-67
2023/01/22 07:44:11;;;;;;;;;;;-0.20;99.90;;;;;;5073052;28;20266;-68
2023/01/22 07:46:40;;;;;;;;;;;-0.20;99.90;;;;;;5073155;28;19950;-68
2023/01/22 07:49:05;;;;;;;;;;;-0.20;99.90;;;;;;5085434;28;19904;-68
2023/01/22 07:51:31;;;;;;;;;;;-0.30;99.90;;;;;;5072105;28;20281;-67
2023/01/22 07:53:56;;;;;;;;;;;-0.20;99.90;;;;;;5079505;28;19904;-68
2023/01/22 07:56:22;;;;;;;;;;;-0.30;99.90;;;;;;5091871;28;19908;-68
2023/01/22 07:58:47;;;;;;;;;;;-0.30;99.90;;;;;;5091954;28;19977;-68
2023/01/22 08:01:13;;;;;;;;;;;-0.30;99.90;;;;;;5078693;28;19908;-69
2023/01/22 08:03:39;;;;;;;;;;;-0.20;99.90;;;;;;5092020;28;20390;-69
2023/01/22 08:06:08;;;;;;;;;;;-0.20;99.90;;;;;;5090798;28;19908;-69
2023/01/22 08:08:33;;;;;;;;;;;-0.10;99.90;;;;;;5087723;28;19915;-69
2023/01/22 08:10:59;;;;;;;;;;;0.00;99.90;;;;;;5091284;28;20284;-69
2023/01/22 08:13:24;;;;;;;;;;;0.10;99.90;;;;;;5091927;28;19903;-69
2023/01/22 08:15:50;;;;;;;;;;;0.10;99.90;;;;;;5091649;28;19912;-69
2023/01/22 08:18:15;;;;;;;;;;;0.20;99.90;;;;;;5090743;28;19943;-69
2023/01/22 08:20:41;;;;;;;;;;;0.20;99.90;;;;;;5090780;28;19965;-69
2023/01/22 08:23:06;;;;;;;;;;;0.30;99.90;;;;;;5091450;28;19908;-69
2023/01/22 08:25:32;;;;;;;;;;;0.30;99.90;;;;;;5090214;28;19904;-69
2023/01/22 08:28:00;;;;;;;;;;;0.30;99.90;;;;;;5090954;28;20317;-69
2023/01/22 08:30:25;;;;;;;;;;;0.30;99.90;;;;;;5090150;28;20353;-69
2023/01/22 08:32:51;;;;;;;;;;;0.40;99.90;;;;;;5090844;28;19915;-67
2023/01/22 08:35:17;;;;;;;;;;;0.50;99.90;;;;;;5089261;28;20372;-67
2023/01/22 08:37:45;;;;;;;;;;;0.50;99.90;;;;;;5090132;28;19911;-67
2023/01/22 08:40:11;;;;;;;;;;;0.60;99.90;;;;;;5078302;28;19994;-67
2023/01/22 08:42:36;;;;;;;;;;;0.60;99.90;;;;;;5091039;28;20482;-68
2023/01/22 08:45:02;;;;;;;;;;;0.70;99.90;;;;;;5090447;28;19911;-68
2023/01/22 08:47:27;;;;;;;;;;;0.60;99.90;;;;;;5091317;28;19907;-69
2023/01/22 08:49:53;;;;;;;;;;;1.00;99.90;;;;;;5085454;28;19909;-69
2023/01/22 08:52:18;;;;;;;;;;;0.60;99.90;;;;;;5090017;28;20292;-68
2023/01/22 08:54:44;;;;;;;;;;;0.70;99.90;;;;;;5090562;28;19994;-69
2023/01/22 08:57:09;;;;;;;;;;;0.70;99.90;;;;;;5090452;28;19920;-68
2023/01/22 08:59:34;;;;;;;;;;;0.70;99.90;;;;;;5090231;28;19912;-68
2023/01/22 09:02:00;;;;;;;;;;;0.80;99.90;;;;;;5090398;28;19964;-68
2023/01/22 09:04:26;;;;;;;;;;;0.80;99.90;;;;;;5088989;28;19904;-68
2023/01/22 09:06:52;;;;;;;;;;;0.70;99.90;;;;;;5089214;28;20012;-68
2023/01/22 09:09:17;;;;;;;;;;;0.80;99.90;;;;;;5089415;28;19904;-68
2023/01/22 09:11:44;;;;;;;;;;;0.80;99.90;;;;;;5071026;28;19904;-69
2023/01/22 09:14:10;;;;;;;;;;;0.90;99.90;;;;;;5070781;28;19962;-68
2023/01/22 09:16:35;;;;;;;;;;;1.60;99.90;;;;;;5069964;28;19955;-68
2023/01/22 09:19:01;;;;;;;;;;;0.90;99.90;;;;;;5070482;28;19962;-68
2023/01/22 09:21:26;;;;;;;;;;;1.00;99.90;;;;;;5070865;28;20342;-68
2023/01/22 09:23:52;;;;;;;;;;;1.00;99.90;;;;;;5071033;28;20003;-68
2023/01/22 09:26:18;;;;;;;;;;;1.10;99.90;;;;;;5070480;28;19931;-69
2023/01/22 09:28:43;;;;;;;;;;;1.00;99.90;;;;;;5070767;28;19958;-68
2023/01/22 09:31:11;;;;;;;;;;;1.00;99.90;;;;;;5070883;28;19909;-68
2023/01/22 09:33:36;;;;;;;;;;;1.00;99.90;;;;;;5083730;28;20288;-68
2023/01/22 09:36:09;;;;;;;;;;;1.10;99.90;;;;;;5070783;28;19913;-68
2023/01/22 09:38:35;;;;;;;;;;;1.00;99.90;;;;;;5071728;28;19928;-68
2023/01/22 09:41:03;;;;;;;;;;;1.00;99.90;;;;;;5081426;28;20284;-69
2023/01/22 09:43:29;;;;;;;;;;;1.10;99.90;;;;;;5070597;28;19920;-68
2023/01/22 09:45:57;;;;;;;;;;;1.20;99.90;;;;;;5070411;28;19904;-68
2023/01/22 09:48:26;;;;;;;;;;;1.30;99.90;;;;;;5071416;28;20442;-69
2023/01/22 09:50:52;;;;;;;;;;;1.20;99.90;;;;;;5093809;28;19908;-68
2023/01/22 09:53:18;;;;;;;;;;;1.20;99.90;;;;;;5093172;28;19904;-68
2023/01/22 09:55:49;;;;;;;;;;;1.20;99.90;;;;;;5102930;28;19908;-68
2023/01/22 09:58:16;;;;;;;;;;;1.10;99.90;;;;;;5092487;28;19969;-69
2023/01/22 10:00:54;;;;;;;;;;;1.20;99.90;;;;;;5074713;28;19988;-68
2023/01/22 10:03:22;;;;;;;;;;;1.20;99.90;;;;;;5077241;28;19905;-69
2023/01/22 10:05:50;;;;;;;;;;;1.20;99.90;;;;;;5077139;28;19910;-69
2023/01/22 10:08:17;;;;;;;;;;;1.30;99.90;;;;;;5076568;28;19914;-69
2023/01/22 10:10:42;;;;;;;;;;;1.30;99.90;;;;;;5074778;28;19905;-69
2023/01/22 10:13:17;;;;;;;;;;;1.40;99.90;;;;;;5088238;28;19911;-68
2023/01/22 10:15:43;;;;;;;;;;;1.30;99.90;;;;;;5095830;28;19908;-68
2023/01/22 10:18:20;;;;;;;;;;;1.40;99.90;;;;;;5081650;28;19994;-69
2023/01/22 10:20:47;;;;;;;;;;;1.30;99.90;;;;;;5070942;28;19979;-69
2023/01/22 10:23:17;;;;;;;;;;;1.40;99.90;;;;;;5070003;28;19905;-69
2023/01/22 10:25:43;;;;;;;;;;;1.30;99.90;;;;;;5070341;28;19905;-68
2023/01/22 10:28:09;;;;;;;;;;;1.30;99.90;;;;;;5070002;28;19911;-67
2023/01/22 10:30:43;;;;;;;;;;;1.40;99.90;;;;;;5075106;28;20365;-68
2023/01/22 10:33:15;;;;;;;;;;;1.40;99.90;;;;;;5089833;28;19961;-68
2023/01/22 10:35:48;;;;;;;;;;;1.40;99.90;;;;;;5095124;28;19987;-68
2023/01/22 10:38:21;;;;;;;;;;;1.50;99.90;;;;;;5086354;28;19911;-68
2023/01/22 10:40:50;;;;;;;;;;;1.50;99.90;;;;;;5081156;28;20373;-68
2023/01/22 10:43:16;;;;;;;;;;;1.50;99.90;;;;;;5110959;28;19967;-68
2023/01/22 10:45:58;;;;;;;;;;;1.50;99.90;;;;;;5090640;28;19904;-69
2023/01/22 10:48:24;;;;;;;;;;;1.50;99.90;;;;;;5093663;28;19912;-67
2023/01/22 10:51:01;;;;;;;;;;;1.50;99.90;;;;;;5091718;28;19911;-68
2023/01/22 10:53:32;;;;;;;;;;;1.60;99.90;;;;;;5090603;28;19911;-67
2023/01/22 10:55:58;;;;;;;;;;;1.50;99.90;;;;;;5093074;28;20110;-67
2023/01/22 10:58:26;;;;;;;;;;;1.60;99.90;;;;;;5087876;28;20372;-67
2023/01/22 11:01:15;;;;;;;;;;;1.60;99.90;;;;;;5093543;28;19911;-66
2023/01/22 11:03:40;;;;;;;;;;;1.60;99.90;;;;;;5072271;28;19915;-66
2023/01/22 11:06:06;;;;;;;;;;;1.60;99.90;;;;;;5092629;28;19904;-66
2023/01/22 11:08:52;;;;;;;;;;;1.70;99.90;;;;;;5092787;28;19984;-66
2023/01/22 11:11:20;;;;;;;;;;;1.70;99.90;;;;;;5078989;28;20032;-66
2023/01/22 11:13:45;;;;;;;;;;;1.70;99.90;;;;;;5081175;28;19904;-67
2023/01/22 11:16:18;;;;;;;;;;;1.70;99.90;;;;;;5072993;28;19934;-67
2023/01/22 11:19:02;;;;;;;;;;;1.70;99.90;;;;;;5073084;28;19904;-66
2023/01/22 11:21:29;;;;;;;;;;;1.80;99.90;;;;;;5071649;28;20003;-67
2023/01/22 11:24:14;;;;;;;;;;;1.70;99.90;;;;;;5072905;28;19973;-67
2023/01/22 11:26:48;;;;;;;;;;;1.70;99.90;;;;;;5072620;28;19915;-69
2023/01/22 11:29:14;;;;;;;;;;;1.70;99.90;;;;;;5072575;28;19959;-69
2023/01/22 11:31:52;;;;;;;;;;;1.70;99.90;;;;;;5073019;28;19963;-69
2023/01/22 11:34:17;;;;;;;;;;;1.60;99.90;;;;;;5093963;28;19915;-69
2023/01/22 11:36:46;;;;;;;;;;;1.70;99.90;;;;;;5099804;28;19912;-67
2023/01/22 11:39:26;;;;;;;;;;;1.80;99.90;;;;;;5108293;28;19948;-66
2023/01/22 11:41:55;;;;;;;;;;;1.70;99.90;;;;;;5094399;28;20408;-67
2023/01/22 11:44:20;;;;;;;;;;;1.70;99.90;;;;;;5095388;28;19920;-66
2023/01/22 11:46:56;;;;;;;;;;;1.70;99.90;;;;;;5080380;28;19908;-67
2023/01/22 11:49:28;;;;;;;;;;;1.70;99.90;;;;;;5082230;28;20066;-69
2023/01/22 11:52:01;;;;;;;;;;;1.70;99.90;;;;;;5087433;28;19999;-70
2023/01/22 11:54:32;;;;;;;;;;;1.50;99.90;;;;;;5090234;28;19947;-69
2023/01/22 11:57:07;;;;;;;;;;;1.60;99.90;;;;;;5103862;28;19916;-69
2023/01/22 11:59:36;;;;;;;;;;;1.70;99.90;;;;;;5082182;28;20002;-69
2023/01/22 12:02:15;;;;;;;;;;;1.70;99.90;;;;;;5084239;28;19915;-69
2023/01/22 12:04:49;;;;;;;;;;;1.70;99.90;;;;;;5086404;28;19960;-69
2023/01/22 12:07:18;;;;;;;;;;;1.70;99.90;;;;;;5090645;28;20379;-69
2023/01/22 12:09:48;;;;;;;;;;;1.70;99.90;;;;;;5084952;28;20383;-69
2023/01/22 12:12:22;;;;;;;;;;;1.90;99.90;;;;;;5082511;28;19904;-69
2023/01/22 12:14:56;;;;;;;;;;;1.90;99.90;;;;;;5081775;28;19907;-69
2023/01/22 12:17:41;;;;;;;;;;;1.90;99.90;;;;;;5078685;28;20117;-69
2023/01/22 12:20:45;;;;;;;;;;;1.90;99.90;;;;;;5076049;28;20107;-69
2023/01/22 12:23:14;;;;;;;;;;;1.90;99.90;;;;;;5010360;28;19996;-69
2023/01/22 12:25:43;;;;;;;;;;;2.10;99.90;;;;;;5010189;28;20032;-69
2023/01/22 12:28:12;;;;;;;;;;;2.10;99.90;;;;;;5009909;28;19905;-70
2023/01/22 12:30:44;;;;;;;;;;;2.20;99.90;;;;;;5010265;28;19932;-67
2023/01/22 12:33:14;;;;;;;;;;;2.20;99.90;;;;;;5008701;28;19997;-67
2023/01/22 12:35:40;;;;;;;;;;;2.20;99.90;;;;;;5009136;28;19941;-67
2023/01/22 12:38:23;;;;;;;;;;;2.30;99.90;;;;;;5009660;28;19912;-68
2023/01/22 12:40:51;;;;;;;;;;;2.30;99.90;;;;;;5008860;28;20354;-68
2023/01/22 12:43:18;;;;;;;;;;;2.50;99.90;;;;;;5009197;28;19924;-68
2023/01/22 12:45:57;;;;;;;;;;;2.40;99.90;;;;;;5009921;28;19906;-68
2023/01/22 12:48:28;;;;;;;;;;;2.40;99.90;;;;;;5008108;28;20362;-68
2023/01/22 12:50:55;;;;;;;;;;;2.40;99.90;;;;;;5008978;28;19910;-68
2023/01/22 12:53:20;;;;;;;;;;;2.40;99.90;;;;;;5027960;28;19999;-68
2023/01/22 12:55:56;;;;;;;;;;;2.40;99.90;;;;;;5070902;28;19994;-68
2023/01/22 12:58:23;;;;;;;;;;;2.40;99.90;;;;;;5071403;28;19911;-68
2023/01/22 13:00:58;;;;;;;;;;;2.40;99.90;;;;;;5081441;28;19905;-68
2023/01/22 13:03:27;;;;;;;;;;;2.40;99.90;;;;;;5072317;28;19904;-68
2023/01/22 13:05:53;;;;;;;;;;;2.40;99.90;;;;;;5070585;28;19911;-68
2023/01/22 13:08:18;;;;;;;;;;;2.40;99.90;;;;;;5071335;28;19998;-68
2023/01/22 13:10:57;;;;;;;;;;;2.40;99.90;;;;;;5079569;28;19908;-68
2023/01/22 13:13:32;;;;;;;;;;;1.50;99.90;;;;;;5077673;28;19910;-68
2023/01/22 13:16:01;;;;;;;;;;;2.30;99.90;;;;;;5088899;28;19951;-68
2023/01/22 13:18:29;;;;;;;;;;;2.30;99.90;;;;;;5095594;28;19908;-68
2023/01/22 13:20:58;;;;;;;;;;;2.40;99.90;;;;;;5106236;28;19911;-68
2023/01/22 13:23:24;;;;;;;;;;;2.40;99.90;;;;;;5105779;28;19908;-68
2023/01/22 13:25:53;;;;;;;;;;;2.40;99.90;;;;;;5095460;28;20713;-68
2023/01/22 13:28:19;;;;;;;;;;;2.50;99.90;;;;;;5097737;28;19962;-67
2023/01/22 13:30:57;;;;;;;;;;;2.40;99.90;;;;;;5106160;28;19950;-68
2023/01/22 13:33:22;;;;;;;;;;;2.50;99.90;;;;;;5098213;28;19903;-68
2023/01/22 13:35:48;;;;;;;;;;;2.50;99.90;;;;;;5085559;28;20376;-67
2023/01/22 13:38:16;;;;;;;;;;;2.50;99.90;;;;;;5087844;28;19915;-68
2023/01/22 13:40:41;;;;;;;;;;;2.50;99.90;;;;;;5076183;28;19912;-68
2023/01/22 13:43:07;;;;;;;;;;;2.50;99.90;;;;;;5087520;28;19916;-68
2023/01/22 13:45:32;;;;;;;;;;;2.50;99.90;;;;;;5084277;28;19944;-68
2023/01/22 13:48:00;;;;;;;;;;;4.10;99.90;;;;;;5087257;28;19904;-68
2023/01/22 13:50:27;;;;;;;;;;;2.40;99.90;;;;;;5083223;28;19905;-68
2023/01/22 13:52:53;;;;;;;;;;;2.50;99.90;;;;;;5086678;28;19904;-68
2023/01/22 13:55:20;;;;;;;;;;;2.40;99.90;;;;;;5083275;28;19904;-69
2023/01/22 13:57:46;;;;;;;;;;;2.40;99.90;;;;;;5087217;28;19915;-67
2023/01/22 14:00:26;;;;;;;;;;;2.40;99.90;;;;;;5083597;28;19911;-67
2023/01/22 14:02:52;;;;;;;;;;;2.40;99.90;;;;;;5084394;28;19911;-68
2023/01/22 14:05:19;;;;;;;;;;;3.30;99.90;;;;;;5079598;28;20241;-67
2023/01/22 14:07:45;;;;;;;;;;;2.40;99.90;;;;;;5086011;28;19908;-67
2023/01/22 14:10:10;;;;;;;;;;;2.30;99.90;;;;;;5075661;28;20253;-68
2023/01/22 14:12:36;;;;;;;;;;;2.20;99.90;;;;;;5083673;28;19904;-66
2023/01/22 14:15:11;;;;;;;;;;;2.30;99.90;;;;;;5082905;28;19915;-67
2023/01/22 14:17:36;;;;;;;;;;;2.40;99.90;;;;;;5072231;28;19912;-67
2023/01/22 14:20:03;;;;;;;;;;;2.30;99.90;;;;;;5074556;28;20361;-67
2023/01/22 14:22:28;;;;;;;;;;;2.20;99.90;;;;;;5076567;28;19962;-67
2023/01/22 14:24:54;;;;;;;;;;;2.20;99.90;;;;;;5074577;28;20326;-67
2023/01/22 14:27:25;;;;;;;;;;;2.30;99.90;;;;;;5074881;28;19919;-67
2023/01/22 14:29:51;;;;;;;;;;;2.20;99.90;;;;;;5074730;28;19910;-67
2023/01/22 14:32:17;;;;;;;;;;;2.20;99.90;;;;;;5074686;28;19909;-67
2023/01/22 14:34:42;;;;;;;;;;;2.20;99.90;;;;;;5083024;28;19908;-68